KDHN

Dothan Regional Airport

Airport
ICAO code
KDHN
IATA Code
DHN
Summary
ICAO Region
NAM
ICAO Territory
Location

Dothan, Alabama

Serving
Dothan
Elevation
401 ft
Coordinates
31° 19' 16" N , 85° 26' 58" W
KCC
Airport WX
Cumulonimbus
Metar
KDHN 221753Z 18014G18KT 10SM CLR 21/11 A3006 RMK AO2 SLP174 T02110106 10211 20044 58027

Description

Regional airport serving the city of Dothan and south eastern Alabama, USA.

Airport map

Aerial View

SKYbrary Partners:

Safety knowledge contributed by: